Hinkle, KY (40953)

8:42 AM EDT on August 28, 2016 (GMT -0400)
Mackey Bend | | Change Station

Elev 1010 ft 36.81 °N, 83.96 °W | Updated 9 minutes ago

Fog
Fog
68.4 °F
Feels Like 68.4 °F
N
0.0
Wind Variable Wind from SSE

Today
High -- | Low -- °F
--% Chance of Precip.
Yesterday
High -- | Low -- °F
Precip. -- in
Pressure 30.24 in
Visibility 0.5 miles
Clouds Overcast 300 ft
Dew Point 68 °F
Humidity 99%
Rainfall 0.00 in
Snow Depth Not available.
7:03 AM 8:08 PM
Waning Crescent, 16% visible
METAR K1A6 281235Z AUTO 00000KT 1/2SM FG OVC003 20/20 A3024 RMK AO2 T02000200
Pressure 30.24 in
Visibility 0.5 miles
Clouds Overcast 300 ft
Dew Point 68 °F
Humidity 99%
Rainfall 0.00 in
Snow Depth Not available.
7:03 AM 8:08 PM
Waning Crescent, 16% visible
METAR K1A6 281235Z AUTO 00000KT 1/2SM FG OVC003 20/20 A3024 RMK AO2 T02000200

10-Day Weather Forecast

Almanac

Astronomy

Aug. 28, 2016 Rise Set
Actual Time
Civil Twilight
Nautical Twilight
Astronomical Twilight
Moon
Length of Visible Light
Length of Day
Tomorrow will be .
, % of the Moon is Illuminated

Today's Extremes

State Highs State Lows

Community

WunderPhotos

Upload Photos

1,935,559 photos uploaded!

WunderBlog® & News

Nearby

Air Quality

  Air Quality AQ Index Pollutant
Not available.

Snow Depth

Station Depth Elevation

Earthquake Activity

City Distance Mag. Time & Date
Minimum magnitude displayed is 2.5.

Coastal Water Temperatures

Place Temperature

Stations

Nearby Weather Stations

Station Location Temp. Windchill Dew Point Humidity Wind Precip. Elev Updated Type
                   

Watches & Warnings

There are currently no watches in effect.